EDT,Max TemperatureF,Mean TemperatureF,Min TemperatureF,Max Dew PointF,MeanDew PointF,Min DewpointF,Max Humidity, Mean Humidity, Min Humidity, Max Sea Level PressureIn, Mean Sea Level PressureIn, Min Sea Level PressureIn, Max VisibilityMiles, Mean VisibilityMiles, Min VisibilityMiles, Max Wind SpeedMPH, Mean Wind SpeedMPH, Max Gust SpeedMPH,PrecipitationIn, CloudCover, Events, WindDirDegrees
2013-8-1,82,71,61,65,61,57,93,76,47,30.06,29.97,29.90,10,9,2,10,2,,0.11,4,Rain,184
2013-8-2,84,73,64,65,61,52,100,76,34,29.88,29.83,29.79,10,6,1,12,5,18,0.74,6,Rain,199
2013-8-3,82,72,63,60,56,51,84,60,36,29.87,29.82,29.78,10,10,10,10,5,21,0.00,1,,232
2013-8-4,79,68,59,57,54,50,87,61,39,29.92,29.85,29.79,10,10,10,15,4,,0.02,2,,305
2013-8-5,75,66,57,50,43,31,75,46,20,30.08,29.98,29.91,10,10,10,18,7,29,0.00,0,,307
2013-8-6,79,65,53,53,49,46,86,57,35,30.17,30.14,30.08,10,10,10,9,1,,0.00,0,,159
2013-8-7,81,68,55,58,53,48,90,62,34,30.21,30.17,30.12,10,10,10,13,4,20,0.00,1,,170
2013-8-8,82,74,66,70,65,56,84,73,60,30.13,30.06,30.01,10,10,10,13,10,20,0.00,6,,186
2013-8-9,75,73,70,72,71,68,100,92,82,30.02,29.87,29.72,10,6,1,18,8,25,1.71,7,Rain,172
2013-8-10,82,74,64,69,56,44,97,58,27,30.04,29.90,29.80,10,10,10,16,5,25,0.01,1,,292
2013-8-11,80,67,55,58,52,48,89,59,34,30.10,30.06,30.02,10,10,10,12,2,,0.00,1,,287
2013-8-12,82,70,59,61,55,49,87,62,36,30.04,29.99,29.94,10,10,10,8,2,,0.00,2,,234
2013-8-13,73,68,64,66,63,61,90,82,73,29.93,29.81,29.70,10,10,6,7,2,,0.03,6,Rain,166
2013-8-14,75,68,62,63,51,47,93,59,41,29.97,29.78,29.68,10,10,8,17,7,25,0.00,3,,289
2013-8-15,75,64,53,52,49,45,86,57,36,30.09,30.06,29.99,10,10,10,10,5,21,0.00,1,,244
2013-8-16,79,66,53,57,52,48,88,62,36,30.21,30.15,30.09,10,10,10,8,2,,0.00,1,,269
2013-8-17,82,68,57,59,54,50,90,63,36,30.30,30.27,30.22,10,10,10,8,2,,0.00,1,,355
2013-8-18,80,70,60,63,59,55,90,71,44,30.29,30.22,30.10,10,10,10,12,2,,0.00,1,,209
2013-8-19,82,70,60,62,59,57,93,69,44,30.09,30.02,29.96,10,10,10,9,2,,0.00,0,Fog,239
2013-8-20,86,73,62,64,60,56,90,64,37,30.11,30.06,30.00,10,10,10,9,1,,0.00,0,,282
2013-8-21,89,76,63,66,62,58,87,65,37,30.16,30.10,30.04,10,10,10,7,2,,0.00,0,,211
2013-8-22,89,76,66,68,64,61,87,68,43,30.04,29.92,29.80,10,10,8,16,4,,0.00,1,Rain-Thunderstorm,208
2013-8-23,81,74,64,65,54,44,81,53,31,30.16,29.99,29.84,10,10,10,18,8,24,0.00,1,,336
2013-8-24,79,66,55,54,49,45,78,55,32,30.35,30.30,30.19,10,10,10,8,5,,0.00,0,,355
2013-8-25,82,68,55,56,52,43,89,58,25,30.39,30.30,30.19,10,10,10,9,2,,0.00,0,,220
2013-8-26,80,72,63,66,62,55,90,72,58,30.18,30.02,29.88,10,10,5,9,4,,0.03,5,Rain,213
2013-8-27,87,78,70,67,65,61,84,66,44,29.92,29.88,29.83,10,10,9,10,4,,0.00,2,,61
2013-8-28,87,76,66,66,64,63,90,71,48,30.01,29.92,29.86,10,10,5,13,3,,0.00,2,Rain,81
2013-8-29,69,66,62,65,61,57,96,87,78,30.12,30.06,29.96,10,9,6,10,5,,0.13,8,Rain-Thunderstorm,67
2013-8-30,84,72,60,66,62,57,96,77,47,30.04,29.93,29.82,10,8,1,7,2,,0.00,4,,209
2013-8-31,81,74,69,72,70,66,97,85,74,29.84,29.81,29.76,10,7,2,9,4,,0.14,7,Rain,184